Latest Weather Observations for Frederick Reef

IDQ60801

Issued at 12:05 pm EST Monday 22 September 2014 (issued every 30 minutes, with the page automatically refreshed every 10 minutes)

About weather observations | Map of weather stations | Latest weather observations for QLD | Other Formats
Station Details ID: 200701 Name: FREDERICK REEF Lat: -20.94 Lon: 154.40 Height: 4.9 m
Data from the previous 72 hours. | See also: Recent months for locations in Queensland
Date/Time
EST
Temp
°C
App
Temp
°C
Dew
Point
Rel
Hum
%
Delta-T
°C
Wind Press
QNH
hPa
Press
MSL
hPa
Rain
since 9 am
mm
Dir
 
Spd
km/h
Gust
km/h
Spd
kts
Gust
kts
22/12:00pm 22.5 - - - - E 46 52 25 28 1019.1 - -
22/11:30am 22.5 - - - - E 48 54 26 29 1019.4 - -
22/11:00am 22.3 - - - - E 50 56 27 30 1019.9 - -
22/10:30am 22.3 - - - - ESE 48 57 26 31 1020.3 - -
22/10:00am 22.2 - - - - E 52 57 28 31 1020.3 - -
22/09:30am 22.1 - - - - ESE 52 59 28 32 1020.3 - -
22/09:00am 22.2 - - - - ESE 54 59 29 32 1020.3 1020.3 -
22/08:30am 22.1 - - - - ESE 52 59 28 32 1020.0 - -
22/08:00am 22.0 - - - - ESE 48 56 26 30 1019.8 - -
22/07:30am 21.8 - - - - ESE 46 54 25 29 1019.8 - -
22/07:00am 22.0 - - - - ESE 46 57 25 31 1019.6 - -
22/06:30am 21.8 - - - - ESE 50 57 27 31 1019.4 - -
22/06:00am 21.7 - - - - E 50 57 27 31 1018.8 1018.8 -
22/05:30am 21.8 - - - - ESE 48 56 26 30 1018.9 - -
22/05:00am 21.6 - - - - ESE 50 56 27 30 1018.9 - -
22/04:30am 21.7 - - - - ESE 48 54 26 29 1018.6 - -
22/04:00am 21.7 - - - - ESE 48 54 26 29 1018.4 - -
22/03:30am 21.7 - - - - ESE 50 57 27 31 1018.3 - -
22/03:00am 21.7 - - - - ESE 48 54 26 29 1018.3 1018.3 -
22/02:30am 21.8 - - - - ESE 44 52 24 28 1018.6 - -
22/02:00am 21.8 - - - - ESE 48 54 26 29 1018.8 - -
22/01:30am 21.5 - - - - ESE 46 56 25 30 1019.1 - -
22/01:00am 21.8 - - - - ESE 48 56 26 30 1019.1 - -
22/12:30am 22.0 - - - - E 54 59 29 32 1019.5 - -
22/12:00am 21.8 - - - - ESE 54 61 29 33 1019.9 1019.9 -
 
Date/Time
EST
Temp
°C
App
Temp
°C
Dew
Point
Rel
Hum
%
Delta-T
°C
Wind Press
QNH
hPa
Press
MSL
hPa
Rain
since 9 am
mm
Dir
 
Spd
km/h
Gust
km/h
Spd
kts
Gust
kts
21/11:30pm 21.8 - - - - ESE 56 65 30 35 1020.3 - -
21/11:00pm 21.9 - - - - ESE 56 65 30 35 1020.6 - -
21/10:30pm 21.7 - - - - ESE 50 59 27 32 1020.5 - -
21/10:26pm 21.3 - - - - ESE 48 59 26 32 1020.7 - -
21/10:20pm 21.4 - - - - E 41 56 22 30 1020.7 - -
21/10:00pm 21.8 - - - - ESE 48 56 26 30 1020.5 - -
21/09:30pm 22.0 - - - - ESE 46 54 25 29 1020.6 - -
21/09:00pm 22.1 - - - - ESE 52 57 28 31 1020.3 1020.3 -
21/08:30pm 22.0 - - - - E 48 54 26 29 1020.1 - -
21/08:00pm 21.9 - - - - ESE 48 54 26 29 1020.0 - -
21/07:30pm 22.1 - - - - ESE 48 57 26 31 1019.8 - -
21/07:00pm 22.0 - - - - ESE 52 57 28 31 1019.6 - -
21/06:30pm 22.0 - - - - ESE 52 59 28 32 1019.4 - -
21/06:00pm 22.0 - - - - ESE 54 59 29 32 1019.3 1019.3 -
21/05:30pm 22.0 - - - - ESE 50 57 27 31 1019.0 - -
21/05:00pm 21.9 - - - - ESE 52 57 28 31 1018.8 - -
21/04:30pm 22.1 - - - - ESE 50 57 27 31 1018.9 - -
21/04:00pm 22.0 - - - - ESE 50 56 27 30 1018.9 - -
21/03:30pm 22.0 - - - - ESE 50 56 27 30 1018.7 - -
21/03:00pm 22.2 - - - - ESE 50 56 27 30 1018.7 1018.7 -
21/02:30pm 22.1 - - - - ESE 46 52 25 28 1018.6 - -
21/02:00pm 22.1 - - - - ESE 50 56 27 30 1018.7 - -
21/01:30pm 22.0 - - - - ESE 48 54 26 29 1018.8 - -
21/01:00pm 22.1 - - - - ESE 46 56 25 30 1019.1 - -
21/12:30pm 21.9 - - - - ESE 48 54 26 29 1019.5 - -
21/12:00pm 21.9 - - - - ESE 48 56 26 30 1020.0 1020.0 -
21/11:30am 21.9 - - - - ESE 48 54 26 29 1020.3 - -
21/11:00am 21.9 - - - - ESE 48 57 26 31 1020.3 - -
21/10:30am 21.9 - - - - ESE 48 54 26 29 1020.9 - -
21/10:00am 22.1 - - - - ESE 46 54 25 29 1020.9 - -
21/09:30am 21.8 - - - - ESE 46 57 25 31 1021.0 - -
21/09:00am 22.1 - - - - ESE 46 54 25 29 1020.9 1020.9 -
21/08:30am 21.8 - - - - ESE 50 56 27 30 1020.6 - -
21/08:00am 21.9 - - - - ESE 46 54 25 29 1020.7 - -
21/07:30am 21.9 - - - - ESE 48 54 26 29 1020.4 - -
21/07:00am 21.7 - - - - ESE 46 54 25 29 1020.0 - -
21/06:30am 21.6 - - - - ESE 46 56 25 30 1019.4 - -
21/06:00am 21.5 - - - - ESE 46 54 25 29 1019.0 1019.0 -
21/05:30am 21.3 - - - - ESE 43 50 23 27 1018.7 - -
21/05:00am 21.4 - - - - ESE 43 50 23 27 1018.3 - -
21/04:30am 21.3 - - - - ESE 43 48 23 26 1018.3 - -
21/04:00am 21.4 - - - - ESE 43 50 23 27 1018.1 - -
21/03:30am 21.4 - - - - ESE 41 46 22 25 1017.8 - -
21/03:00am 21.3 - - - - ESE 41 44 22 24 1017.6 - -
21/02:30am 21.5 - - - - E 39 46 21 25 1017.8 - -
21/02:00am 21.6 - - - - ESE 39 44 21 24 1018.0 - -
21/01:30am 21.5 - - - - ESE 43 48 23 26 1018.3 - -
21/01:00am 21.4 - - - - ESE 41 48 22 26 1018.4 - -
21/12:30am 21.6 - - - - ESE 41 44 22 24 1018.8 - -
21/12:00am 21.7 - - - - ESE 39 44 21 24 1019.2 - -
 
Date/Time
EST
Temp
°C
App
Temp
°C
Dew
Point
Rel
Hum
%
Delta-T
°C
Wind Press
QNH
hPa
Press
MSL
hPa
Rain
since 9 am
mm
Dir
 
Spd
km/h
Gust
km/h
Spd
kts
Gust
kts
20/11:30pm 21.6 - - - - ESE 41 48 22 26 1019.5 - -
20/11:00pm 21.7 - - - - ESE 43 48 23 26 1019.7 - -
20/10:30pm 21.9 - - - - ESE 41 46 22 25 1019.7 - -
20/10:00pm 22.0 - - - - ESE 41 46 22 25 1019.8 - -
20/09:30pm 22.0 - - - - ESE 39 46 21 25 1019.8 - -
20/09:00pm 22.0 - - - - ESE 39 44 21 24 1019.8 - -
20/08:30pm 22.0 - - - - ESE 37 44 20 24 1019.5 - -
20/08:00pm 22.1 - - - - ESE 37 44 20 24 1019.1 - -
20/07:30pm 22.1 - - - - ESE 33 39 18 21 1019.0 - -
20/07:00pm 22.0 - - - - ESE 37 43 20 23 1018.4 - -
20/06:30pm 22.2 - - - - ESE 33 37 18 20 1018.1 - -
20/06:00pm 22.1 - - - - ESE 33 39 18 21 1017.7 - -
20/05:30pm 22.1 - - - - ESE 30 35 16 19 1017.4 - -
20/05:00pm 22.1 - - - - ESE 30 35 16 19 1017.0 - -
20/04:30pm 22.1 - - - - SE 32 35 17 19 1016.8 - -
20/04:00pm 22.1 - - - - SE 32 35 17 19 1016.5 - -
20/03:30pm 22.1 - - - - ESE 32 35 17 19 1016.4 - -
20/03:00pm 22.0 - - - - SE 32 33 17 18 1016.3 1016.3 -
20/02:30pm 22.1 - - - - ESE 30 33 16 18 1016.3 - -
20/02:00pm 22.1 - - - - ESE 32 33 17 18 1016.5 - -
20/01:30pm 22.4 - - - - ESE 30 35 16 19 1016.6 - -
20/01:00pm 22.1 - - - - ESE 32 35 17 19 1017.0 - -
20/12:30pm 22.1 - - - - ESE 32 35 17 19 1017.3 - -
20/12:00pm 22.3 - - - - ESE 32 37 17 20 1017.5 1017.5 -
20/11:30am 22.0 - - - - ESE 32 35 17 19 1017.7 - -
20/11:00am 22.0 - - - - ESE 33 37 18 20 1018.0 - -
20/10:30am 22.2 - - - - ESE 33 37 18 20 1018.3 - -
20/10:00am 22.2 - - - - ESE 35 41 19 22 1018.7 - -
20/09:30am 22.2 - - - - ESE 35 37 19 20 1018.8 - -
20/09:00am 22.0 - - - - ESE 32 35 17 19 1018.8 1018.8 -
20/08:30am 22.4 - - - - ESE 33 37 18 20 1018.5 - -
20/08:00am 22.5 - - - - ESE 32 35 17 19 1018.3 - -
20/07:30am 22.3 - - - - ESE 32 35 17 19 1018.0 - -
20/07:00am 22.0 - - - - ESE 32 35 17 19 1017.7 - -
20/06:30am 22.1 - - - - SE 32 35 17 19 1017.4 - -
20/06:00am 22.1 - - - - SE 32 35 17 19 1017.2 1017.2 -
20/05:30am 22.0 - - - - SE 30 33 16 18 1016.8 - -
20/05:04am 22.2 - - - - SE 28 32 15 17 1016.7 - -
20/05:00am 22.1 - - - - SE 2 6 1 3 1016.6 - -
20/04:30am 21.8 - - - - ESE 2 6 1 3 1016.4 - -
20/04:00am 21.8 - - - - SE 2 6 1 3 1016.2 - -
20/03:30am 22.1 - - - - SE 2 6 1 3 1016.0 - -
20/03:00am 22.0 - - - - CALM 0 6 0 3 1016.1 - -
20/02:30am 22.1 - - - - CALM 0 4 0 2 1016.3 - -
20/02:00am 22.1 - - - - CALM 0 4 0 2 1016.5 - -
20/01:30am 22.3 - - - - ESE 2 6 1 3 1016.9 - -
20/01:00am 22.4 - - - - CALM 0 6 0 3 1017.2 - -
20/12:30am 22.5 - - - - CALM 0 4 0 2 1017.8 - -
20/12:00am 22.6 - - - - ESE 2 6 1 3 1018.5 - -
 
Date/Time
EST
Temp
°C
App
Temp
°C
Dew
Point
Rel
Hum
%
Delta-T
°C
Wind Press
QNH
hPa
Press
MSL
hPa
Rain
since 9 am
mm
Dir
 
Spd
km/h
Gust
km/h
Spd
kts
Gust
kts
19/11:30pm 22.3 - - - - CALM 0 4 0 2 1018.8 - -
19/11:00pm 22.2 - - - - SE 2 6 1 3 1019.0 - -
19/10:30pm 22.4 - - - - CALM 0 4 0 2 1019.0 - -
19/10:00pm 22.5 - - - - CALM 0 4 0 2 1019.1 - -
19/09:30pm 22.5 - - - - ESE 2 6 1 3 1019.1 - -
19/09:00pm 22.6 - - - - ESE 2 6 1 3 1018.7 - -
19/08:30pm 22.3 - - - - ESE 2 6 1 3 1018.6 - -
19/08:00pm 22.7 - - - - E 2 6 1 3 1018.5 - -
19/07:30pm 22.8 - - - - ESE 2 4 1 2 1018.2 - -
19/07:00pm 22.6 - - - - ESE 2 6 1 3 1017.8 - -
19/06:30pm 22.5 - - - - ESE 2 6 1 3 1017.5 - -
19/06:00pm 22.5 - - - - ESE 4 37 2 20 1017.2 - -
19/05:30pm 22.5 - - - - SE 32 35 17 19 1016.7 - -
19/05:00pm 22.5 - - - - SE 30 33 16 18 1016.6 - -
19/04:30pm 22.6 - - - - SE 28 32 15 17 1016.3 - -
19/04:00pm 22.5 - - - - SE 28 32 15 17 1016.2 - -
19/03:30pm 22.8 - - - - SE 30 33 16 18 1016.0 - -
19/03:00pm 22.9 - - - - SE 28 30 15 16 1015.8 1015.8 -
19/02:30pm 22.5 - - - - SE 28 32 15 17 1015.9 - -
19/02:00pm 22.7 - - - - SE 28 30 15 16 1016.1 - -
19/01:30pm 22.7 - - - - SE 26 30 14 16 1016.3 - -
19/01:00pm 22.5 - - - - SE 28 32 15 17 1016.8 - -
19/12:30pm 22.6 - - - - SE 30 32 16 17 1017.2 - -

Other Formats:

Comma delimited format used in spreadsheet applications
http://www.bom.gov.au/fwo/IDQ60801/IDQ60801.94393.axf

JavaScript Object Notation format (JSON) in row-major order
http://www.bom.gov.au/fwo/IDQ60801/IDQ60801.94393.json